sensor_id;sensor_type;location;lat;lon;timestamp;pressure;altitude;pressure_sealevel;temperature;humidity
46534;BME280;32260;52.008;4.752;2024-01-06T00:02:25;100529.28;;;8.53;69.04
46534;BME280;32260;52.008;4.752;2024-01-06T00:04:51;100524.97;;;8.46;69.06
46534;BME280;32260;52.008;4.752;2024-01-06T00:07:18;100535.72;;;8.33;68.59
46534;BME280;32260;52.008;4.752;2024-01-06T00:09:44;100533.06;;;8.36;68.59
46534;BME280;32260;52.008;4.752;2024-01-06T00:12:10;100541.94;;;8.29;68.41
46534;BME280;32260;52.008;4.752;2024-01-06T00:14:36;100534.03;;;8.29;68.53
46534;BME280;32260;52.008;4.752;2024-01-06T00:17:03;100542.78;;;8.33;68.82
46534;BME280;32260;52.008;4.752;2024-01-06T00:19:29;100543.66;;;8.32;69.03
46534;BME280;32260;52.008;4.752;2024-01-06T00:21:55;100541.78;;;8.38;68.84
46534;BME280;32260;52.008;4.752;2024-01-06T00:24:21;100548.91;;;8.33;68.47
46534;BME280;32260;52.008;4.752;2024-01-06T00:26:48;100545.44;;;8.31;68.78
46534;BME280;32260;52.008;4.752;2024-01-06T00:29:14;100540.97;;;8.35;68.62
46534;BME280;32260;52.008;4.752;2024-01-06T00:31:40;100552.47;;;8.31;68.39
46534;BME280;32260;52.008;4.752;2024-01-06T00:34:06;100556.22;;;8.16;68.10
46534;BME280;32260;52.008;4.752;2024-01-06T00:36:32;100552.63;;;8.20;68.56
46534;BME280;32260;52.008;4.752;2024-01-06T00:38:58;100549.25;;;8.12;68.58
46534;BME280;32260;52.008;4.752;2024-01-06T00:41:25;100549.34;;;8.05;68.60
46534;BME280;32260;52.008;4.752;2024-01-06T00:43:51;100562.44;;;8.12;68.27
46534;BME280;32260;52.008;4.752;2024-01-06T00:46:17;100563.41;;;8.07;68.78
46534;BME280;32260;52.008;4.752;2024-01-06T00:48:43;100563.25;;;8.17;68.61
46534;BME280;32260;52.008;4.752;2024-01-06T00:51:09;100570.28;;;8.18;69.12
46534;BME280;32260;52.008;4.752;2024-01-06T00:53:36;100572.03;;;8.19;69.02
46534;BME280;32260;52.008;4.752;2024-01-06T00:56:02;100576.59;;;8.07;68.51
46534;BME280;32260;52.008;4.752;2024-01-06T00:58:28;100577.31;;;8.19;68.76
46534;BME280;32260;52.008;4.752;2024-01-06T01:00:54;100579.03;;;8.20;69.16
46534;BME280;32260;52.008;4.752;2024-01-06T01:03:21;100573.72;;;8.23;69.04
46534;BME280;32260;52.008;4.752;2024-01-06T01:05:47;100579.91;;;8.20;68.30
46534;BME280;32260;52.008;4.752;2024-01-06T01:08:13;100588.69;;;8.21;68.88
46534;BME280;32260;52.008;4.752;2024-01-06T01:10:39;100588.75;;;8.18;68.54
46534;BME280;32260;52.008;4.752;2024-01-06T01:13:05;100589.78;;;8.07;68.24
46534;BME280;32260;52.008;4.752;2024-01-06T01:15:31;100595.94;;;8.06;67.77
46534;BME280;32260;52.008;4.752;2024-01-06T01:17:58;100610.13;;;7.96;67.65
46534;BME280;32260;52.008;4.752;2024-01-06T01:20:24;100622.53;;;7.92;66.82
46534;BME280;32260;52.008;4.752;2024-01-06T01:22:50;100623.22;;;8.05;67.09
46534;BME280;32260;52.008;4.752;2024-01-06T01:25:16;100628.56;;;7.99;66.77
46534;BME280;32260;52.008;4.752;2024-01-06T01:27:43;100623.22;;;8.05;66.88
46534;BME280;32260;52.008;4.752;2024-01-06T01:30:09;100624.16;;;8.01;66.63
46534;BME280;32260;52.008;4.752;2024-01-06T01:32:37;100629.38;;;8.07;67.02
46534;BME280;32260;52.008;4.752;2024-01-06T01:35:03;100627.66;;;8.02;66.61
46534;BME280;32260;52.008;4.752;2024-01-06T01:37:29;100632.03;;;8.04;67.05
46534;BME280;32260;52.008;4.752;2024-01-06T01:39:55;100636.38;;;8.08;66.97
46534;BME280;32260;52.008;4.752;2024-01-06T01:42:22;100640.00;;;8.00;67.33
46534;BME280;32260;52.008;4.752;2024-01-06T01:44:48;100638.19;;;8.03;67.11
46534;BME280;32260;52.008;4.752;2024-01-06T01:47:14;100644.44;;;7.98;67.87
46534;BME280;32260;52.008;4.752;2024-01-06T01:49:45;100642.63;;;8.01;67.44
46534;BME280;32260;52.008;4.752;2024-01-06T01:52:13;100651.31;;;8.09;67.81
46534;BME280;32260;52.008;4.752;2024-01-06T01:54:41;100652.13;;;8.15;67.54
46534;BME280;32260;52.008;4.752;2024-01-06T01:57:08;100654.75;;;8.15;67.85
46534;BME280;32260;52.008;4.752;2024-01-06T01:59:35;100665.50;;;7.99;68.13
46534;BME280;32260;52.008;4.752;2024-01-06T02:02:02;100671.59;;;8.04;68.07
46534;BME280;32260;52.008;4.752;2024-01-06T02:04:29;100669.03;;;8.01;67.83
46534;BME280;32260;52.008;4.752;2024-01-06T02:06:55;100665.50;;;7.99;67.85
46534;BME280;32260;52.008;4.752;2024-01-06T02:09:21;100669.94;;;7.96;67.64
46534;BME280;32260;52.008;4.752;2024-01-06T02:11:52;100667.34;;;7.91;67.47
46534;BME280;32260;52.008;4.752;2024-01-06T02:14:19;100669.31;;;7.76;67.16
46534;BME280;32260;52.008;4.752;2024-01-06T02:16:45;100670.13;;;7.82;66.98
46534;BME280;32260;52.008;4.752;2024-01-06T02:19:12;100678.94;;;7.79;66.61
46534;BME280;32260;52.008;4.752;2024-01-06T02:21:42;100682.41;;;7.84;67.12
46534;BME280;32260;52.008;4.752;2024-01-06T02:24:09;100688.66;;;7.75;66.31
46534;BME280;32260;52.008;4.752;2024-01-06T02:26:35;100707.94;;;7.77;67.15
46534;BME280;32260;52.008;4.752;2024-01-06T02:29:01;100698.28;;;7.78;66.91
46534;BME280;32260;52.008;4.752;2024-01-06T02:31:28;100706.19;;;7.80;66.30
46534;BME280;32260;52.008;4.752;2024-01-06T02:33:54;100702.69;;;7.76;66.87
46534;BME280;32260;52.008;4.752;2024-01-06T02:36:20;100707.19;;;7.69;66.40
46534;BME280;32260;52.008;4.752;2024-01-06T02:38:46;100708.09;;;7.65;66.87
46534;BME280;32260;52.008;4.752;2024-01-06T02:41:12;100709.88;;;7.63;66.62
46534;BME280;32260;52.008;4.752;2024-01-06T02:43:39;100710.66;;;7.73;66.63
46534;BME280;32260;52.008;4.752;2024-01-06T02:46:06;100715.84;;;7.77;66.99
46534;BME280;32260;52.008;4.752;2024-01-06T02:48:32;100721.06;;;7.84;66.68
46534;BME280;32260;52.008;4.752;2024-01-06T02:50:59;100720.22;;;7.82;66.84
46534;BME280;32260;52.008;4.752;2024-01-06T02:53:25;100730.81;;;7.78;66.89
46534;BME280;32260;52.008;4.752;2024-01-06T02:55:51;100731.63;;;7.84;67.01
46534;BME280;32260;52.008;4.752;2024-01-06T02:58:17;100732.53;;;7.83;67.11
46534;BME280;32260;52.008;4.752;2024-01-06T03:00:43;100741.31;;;7.83;66.83
46534;BME280;32260;52.008;4.752;2024-01-06T03:03:09;100744.88;;;7.77;66.81
46534;BME280;32260;52.008;4.752;2024-01-06T03:05:36;100742.25;;;7.76;66.92
46534;BME280;32260;52.008;4.752;2024-01-06T03:08:03;100737.06;;;7.71;67.18
46534;BME280;32260;52.008;4.752;2024-01-06T03:10:30;100744.88;;;7.77;66.49
46534;BME280;32260;52.008;4.752;2024-01-06T03:12:56;100747.59;;;7.71;66.81
46534;BME280;32260;52.008;4.752;2024-01-06T03:15:22;100752.00;;;7.69;67.00
46534;BME280;32260;52.008;4.752;2024-01-06T03:17:48;100751.97;;;7.72;67.06
46534;BME280;32260;52.008;4.752;2024-01-06T03:20:14;100757.16;;;7.82;67.15
46534;BME280;32260;52.008;4.752;2024-01-06T03:22:41;100759.81;;;7.82;66.83
46534;BME280;32260;52.008;4.752;2024-01-06T03:25:07;100757.22;;;7.75;67.42
46534;BME280;32260;52.008;4.752;2024-01-06T03:27:34;100766.03;;;7.74;67.41
46534;BME280;32260;52.008;4.752;2024-01-06T03:30:00;100762.56;;;7.69;67.08
46534;BME280;32260;52.008;4.752;2024-01-06T03:32:26;100771.34;;;7.71;67.45
46534;BME280;32260;52.008;4.752;2024-01-06T03:34:54;100768.75;;;7.64;67.14
46534;BME280;32260;52.008;4.752;2024-01-06T03:37:20;100772.19;;;7.72;67.43
46534;BME280;32260;52.008;4.752;2024-01-06T03:39:48;100773.03;;;7.75;67.25
46534;BME280;32260;52.008;4.752;2024-01-06T03:42:14;100779.22;;;7.74;67.60
46534;BME280;32260;52.008;4.752;2024-01-06T03:44:40;100788.03;;;7.72;67.27
46534;BME280;32260;52.008;4.752;2024-01-06T03:47:06;100790.78;;;7.58;67.49
46534;BME280;32260;52.008;4.752;2024-01-06T03:49:33;100788.16;;;7.58;66.98
46534;BME280;32260;52.008;4.752;2024-01-06T03:51:59;100802.13;;;7.66;66.96
46534;BME280;32260;52.008;4.752;2024-01-06T03:54:25;100800.34;;;7.70;67.38
46534;BME280;32260;52.008;4.752;2024-01-06T03:56:51;100806.50;;;7.67;67.45
46534;BME280;32260;52.008;4.752;2024-01-06T03:59:17;100800.34;;;7.70;67.47
46534;BME280;32260;52.008;4.752;2024-01-06T04:01:43;100804.84;;;7.58;67.20
46534;BME280;32260;52.008;4.752;2024-01-06T04:04:09;100807.44;;;7.60;67.67
46534;BME280;32260;52.008;4.752;2024-01-06T04:06:36;100807.38;;;7.71;67.82
46534;BME280;32260;52.008;4.752;2024-01-06T04:09:02;100812.63;;;7.71;67.13
46534;BME280;32260;52.008;4.752;2024-01-06T04:11:28;100814.47;;;7.63;67.59
46534;BME280;32260;52.008;4.752;2024-01-06T04:13:54;100822.44;;;7.55;67.78
46534;BME280;32260;52.008;4.752;2024-01-06T04:16:20;100820.69;;;7.55;67.95
46534;BME280;32260;52.008;4.752;2024-01-06T04:18:47;100825.94;;;7.54;67.81
46534;BME280;32260;52.008;4.752;2024-01-06T04:21:13;100823.34;;;7.51;68.05
46534;BME280;32260;52.008;4.752;2024-01-06T04:23:39;100826.84;;;7.51;68.37
46534;BME280;32260;52.008;4.752;2024-01-06T04:26:05;100826.81;;;7.59;68.09
46534;BME280;32260;52.008;4.752;2024-01-06T04:28:32;100829.50;;;7.51;68.01
46534;BME280;32260;52.008;4.752;2024-01-06T04:30:58;100836.50;;;7.54;67.63
46534;BME280;32260;52.008;4.752;2024-01-06T04:33:25;100848.06;;;7.37;67.21
46534;BME280;32260;52.008;4.752;2024-01-06T04:35:51;100843.66;;;7.38;66.97
46534;BME280;32260;52.008;4.752;2024-01-06T04:38:17;100840.13;;;7.40;67.26
46534;BME280;32260;52.008;4.752;2024-01-06T04:40:43;100849.75;;;7.46;67.49
46534;BME280;32260;52.008;4.752;2024-01-06T04:43:09;100852.38;;;7.48;67.42
46534;BME280;32260;52.008;4.752;2024-01-06T04:45:36;100845.31;;;7.53;67.04
46534;BME280;32260;52.008;4.752;2024-01-06T04:48:03;100854.13;;;7.49;67.52
46534;BME280;32260;52.008;4.752;2024-01-06T04:50:30;100851.44;;;7.55;67.68
46534;BME280;32260;52.008;4.752;2024-01-06T04:52:56;100855.00;;;7.46;67.20
46534;BME280;32260;52.008;4.752;2024-01-06T04:55:23;100844.41;;;7.57;67.68
46534;BME280;32260;52.008;4.752;2024-01-06T04:57:49;100848.84;;;7.52;67.93
46534;BME280;32260;52.008;4.752;2024-01-06T05:00:16;100852.31;;;7.57;67.83
46534;BME280;32260;52.008;4.752;2024-01-06T05:02:42;100861.16;;;7.53;67.83
46534;BME280;32260;52.008;4.752;2024-01-06T05:05:09;100858.53;;;7.47;67.68
46534;BME280;32260;52.008;4.752;2024-01-06T05:07:35;100857.72;;;7.41;67.68
46534;BME280;32260;52.008;4.752;2024-01-06T05:10:01;100862.06;;;7.42;67.93
46534;BME280;32260;52.008;4.752;2024-01-06T05:12:28;100864.75;;;7.39;67.52
46534;BME280;32260;52.008;4.752;2024-01-06T05:14:54;100868.28;;;7.35;67.89
46534;BME280;32260;52.008;4.752;2024-01-06T05:17:20;100873.50;;;7.43;67.86
46534;BME280;32260;52.008;4.752;2024-01-06T05:19:46;100873.53;;;7.38;67.91
46534;BME280;32260;52.008;4.752;2024-01-06T05:22:12;100881.44;;;7.38;67.23
46534;BME280;32260;52.008;4.752;2024-01-06T05:24:38;100886.75;;;7.27;68.11
46534;BME280;32260;52.008;4.752;2024-01-06T05:27:05;100883.22;;;7.33;67.41
46534;BME280;32260;52.008;4.752;2024-01-06T05:29:31;100885.94;;;7.16;67.31
46534;BME280;32260;52.008;4.752;2024-01-06T05:31:57;100894.72;;;7.23;67.37
46534;BME280;32260;52.008;4.752;2024-01-06T05:34:23;100887.66;;;7.28;67.90
46534;BME280;32260;52.008;4.752;2024-01-06T05:36:49;100885.97;;;7.15;67.51
46534;BME280;32260;52.008;4.752;2024-01-06T05:39:15;100893.81;;;7.27;67.39
46534;BME280;32260;52.008;4.752;2024-01-06T05:41:41;100897.31;;;7.27;67.04
46534;BME280;32260;52.008;4.752;2024-01-06T05:44:08;100899.09;;;7.22;67.08
46534;BME280;32260;52.008;4.752;2024-01-06T05:46:35;100899.13;;;7.16;67.69
46534;BME280;32260;52.008;4.752;2024-01-06T05:49:02;100907.00;;;7.18;67.41
46534;BME280;32260;52.008;4.752;2024-01-06T05:51:28;100905.25;;;7.23;67.80
46534;BME280;32260;52.008;4.752;2024-01-06T05:53:54;100911.44;;;7.16;67.87
46534;BME280;32260;52.008;4.752;2024-01-06T05:56:23;100915.81;;;7.17;67.99
46534;BME280;32260;52.008;4.752;2024-01-06T05:58:51;100916.69;;;7.19;67.63
46534;BME280;32260;52.008;4.752;2024-01-06T06:01:18;100929.91;;;7.09;68.22
46534;BME280;32260;52.008;4.752;2024-01-06T06:03:44;100929.03;;;7.07;68.14
46534;BME280;32260;52.008;4.752;2024-01-06T06:06:10;100937.81;;;7.06;67.69
46534;BME280;32260;52.008;4.752;2024-01-06T06:08:36;100938.69;;;7.07;67.72
46534;BME280;32260;52.008;4.752;2024-01-06T06:11:02;100944.84;;;7.03;68.07
46534;BME280;32260;52.008;4.752;2024-01-06T06:13:37;100951.00;;;7.09;67.99
46534;BME280;32260;52.008;4.752;2024-01-06T06:16:04;100953.56;;;7.19;68.27
46534;BME280;32260;52.008;4.752;2024-01-06T06:18:30;100964.13;;;7.12;67.78
46534;BME280;32260;52.008;4.752;2024-01-06T06:20:56;100960.59;;;7.15;68.46
46534;BME280;32260;52.008;4.752;2024-01-06T06:23:22;100961.50;;;7.12;68.27
46534;BME280;32260;52.008;4.752;2024-01-06T06:25:49;100963.22;;;7.20;68.28
46534;BME280;32260;52.008;4.752;2024-01-06T06:28:15;100971.16;;;7.09;68.73
46534;BME280;32260;52.008;4.752;2024-01-06T06:30:41;100970.25;;;7.21;68.45
46534;BME280;32260;52.008;4.752;2024-01-06T06:33:07;100979.91;;;7.19;68.49
46534;BME280;32260;52.008;4.752;2024-01-06T06:35:34;100972.03;;;7.22;68.46
46534;BME280;32260;52.008;4.752;2024-01-06T06:38:00;100984.31;;;7.23;68.50
46534;BME280;32260;52.008;4.752;2024-01-06T06:40:26;100985.19;;;7.22;68.38
46534;BME280;32260;52.008;4.752;2024-01-06T06:42:52;100987.81;;;7.28;68.44
46534;BME280;32260;52.008;4.752;2024-01-06T06:45:18;100992.19;;;7.31;68.37
46534;BME280;32260;52.008;4.752;2024-01-06T06:47:48;101000.97;;;7.28;68.44
46534;BME280;32260;52.008;4.752;2024-01-06T06:50:16;101005.41;;;7.23;68.76
46534;BME280;32260;52.008;4.752;2024-01-06T06:52:42;101004.50;;;7.22;68.58
46534;BME280;32260;52.008;4.752;2024-01-06T06:55:09;101016.81;;;7.28;68.64
46534;BME280;32260;52.008;4.752;2024-01-06T06:57:35;101014.19;;;7.26;68.46
46534;BME280;32260;52.008;4.752;2024-01-06T07:00:02;101022.06;;;7.25;68.54
46534;BME280;32260;52.008;4.752;2024-01-06T07:02:28;101025.59;;;7.21;68.83
46534;BME280;32260;52.008;4.752;2024-01-06T07:04:54;101023.84;;;7.15;68.72
46534;BME280;32260;52.008;4.752;2024-01-06T07:07:20;101030.88;;;7.15;68.87
46534;BME280;32260;52.008;4.752;2024-01-06T07:09:47;101040.56;;;7.09;69.00
46534;BME280;32260;52.008;4.752;2024-01-06T07:12:13;101036.19;;;7.07;69.07
46534;BME280;32260;52.008;4.752;2024-01-06T07:14:39;101038.78;;;7.10;68.97
46534;BME280;32260;52.008;4.752;2024-01-06T07:17:05;101051.09;;;7.09;68.80
46534;BME280;32260;52.008;4.752;2024-01-06T07:19:32;101051.09;;;7.12;69.04
46534;BME280;32260;52.008;4.752;2024-01-06T07:21:59;101060.75;;;7.07;68.41
46534;BME280;32260;52.008;4.752;2024-01-06T07:24:25;101073.06;;;7.02;68.37
46534;BME280;32260;52.008;4.752;2024-01-06T07:26:52;101071.31;;;7.04;68.73
46534;BME280;32260;52.008;4.752;2024-01-06T07:29:18;101068.66;;;7.07;68.72
46534;BME280;32260;52.008;4.752;2024-01-06T07:31:45;101086.22;;;7.08;69.05
46534;BME280;32260;52.008;4.752;2024-01-06T07:34:11;101078.34;;;7.08;68.59
46534;BME280;32260;52.008;4.752;2024-01-06T07:36:37;101088.84;;;7.11;68.73
46534;BME280;32260;52.008;4.752;2024-01-06T07:39:04;101088.88;;;7.13;68.83
46534;BME280;32260;52.008;4.752;2024-01-06T07:41:31;101093.25;;;7.09;69.01
46534;BME280;32260;52.008;4.752;2024-01-06T07:43:58;101095.91;;;7.03;68.94
46534;BME280;32260;52.008;4.752;2024-01-06T07:46:24;101107.31;;;7.08;68.41
46534;BME280;32260;52.008;4.752;2024-01-06T07:48:50;101114.34;;;7.09;68.97
46534;BME280;32260;52.008;4.752;2024-01-06T07:51:16;101104.66;;;7.11;69.00
46534;BME280;32260;52.008;4.752;2024-01-06T07:53:43;101109.94;;;7.16;68.38
46534;BME280;32260;52.008;4.752;2024-01-06T07:56:09;101111.69;;;7.12;68.68
46534;BME280;32260;52.008;4.752;2024-01-06T07:58:35;101109.94;;;7.15;68.16
46534;BME280;32260;52.008;4.752;2024-01-06T08:01:01;101112.56;;;7.15;68.54
46534;BME280;32260;52.008;4.752;2024-01-06T08:03:27;101119.59;;;7.12;68.50
46534;BME280;32260;52.008;4.752;2024-01-06T08:05:54;101124.88;;;7.12;68.37
46534;BME280;32260;52.008;4.752;2024-01-06T08:08:20;101131.03;;;7.10;67.85
46534;BME280;32260;52.008;4.752;2024-01-06T08:10:46;101141.56;;;7.10;67.78
46534;BME280;32260;52.008;4.752;2024-01-06T08:13:13;101146.84;;;7.07;67.76
46534;BME280;32260;52.008;4.752;2024-01-06T08:15:39;101143.31;;;7.05;67.88
46534;BME280;32260;52.008;4.752;2024-01-06T08:18:05;101159.13;;;7.09;68.27
46534;BME280;32260;52.008;4.752;2024-01-06T08:20:31;101148.59;;;7.06;67.89
46534;BME280;32260;52.008;4.752;2024-01-06T08:22:57;101156.50;;;7.16;67.81
46534;BME280;32260;52.008;4.752;2024-01-06T08:25:23;101160.00;;;7.18;67.90
46534;BME280;32260;52.008;4.752;2024-01-06T08:27:50;101160.88;;;7.20;67.94
46534;BME280;32260;52.008;4.752;2024-01-06T08:30:16;101164.41;;;7.16;68.29
46534;BME280;32260;52.008;4.752;2024-01-06T08:32:42;101167.91;;;7.19;67.72
46534;BME280;32260;52.008;4.752;2024-01-06T08:35:09;101171.44;;;7.18;67.63
46534;BME280;32260;52.008;4.752;2024-01-06T08:37:35;101175.81;;;7.11;67.48
46534;BME280;32260;52.008;4.752;2024-01-06T08:40:01;101174.06;;;7.20;67.38
46534;BME280;32260;52.008;4.752;2024-01-06T08:42:29;101179.34;;;7.17;67.38
46534;BME280;32260;52.008;4.752;2024-01-06T08:44:55;101181.97;;;7.24;67.52
46534;BME280;32260;52.008;4.752;2024-01-06T08:47:21;101182.84;;;7.22;67.51
46534;BME280;32260;52.008;4.752;2024-01-06T08:49:47;101179.31;;;7.15;67.68
46534;BME280;32260;52.008;4.752;2024-01-06T08:52:13;101186.38;;;7.19;67.49
46534;BME280;32260;52.008;4.752;2024-01-06T08:54:39;101193.38;;;7.17;67.03
46534;BME280;32260;52.008;4.752;2024-01-06T08:57:06;101196.88;;;7.11;66.79
46534;BME280;32260;52.008;4.752;2024-01-06T08:59:32;101193.38;;;7.05;67.22
46534;BME280;32260;52.008;4.752;2024-01-06T09:01:58;101196.00;;;7.06;66.74
46534;BME280;32260;52.008;4.752;2024-01-06T09:04:24;101203.03;;;7.07;67.46
46534;BME280;32260;52.008;4.752;2024-01-06T09:06:51;101205.69;;;7.12;67.43
46534;BME280;32260;52.008;4.752;2024-01-06T09:09:17;101212.69;;;7.10;67.24
46534;BME280;32260;52.008;4.752;2024-01-06T09:11:43;101216.25;;;7.10;66.71
46534;BME280;32260;52.008;4.752;2024-01-06T09:14:10;101225.88;;;6.97;66.64
46534;BME280;32260;52.008;4.752;2024-01-06T09:16:37;101232.03;;;7.01;66.97
46534;BME280;32260;52.008;4.752;2024-01-06T09:19:03;101225.00;;;7.09;67.15
46534;BME280;32260;52.008;4.752;2024-01-06T09:21:29;101231.16;;;7.13;67.02
46534;BME280;32260;52.008;4.752;2024-01-06T09:23:55;101233.78;;;7.15;66.96
46534;BME280;32260;52.008;4.752;2024-01-06T09:26:22;101236.44;;;7.19;67.02
46534;BME280;32260;52.008;4.752;2024-01-06T09:28:48;101251.38;;;7.22;66.55
46534;BME280;32260;52.008;4.752;2024-01-06T09:31:14;101250.50;;;7.18;66.26
46534;BME280;32260;52.008;4.752;2024-01-06T09:33:40;101253.13;;;7.23;66.98
46534;BME280;32260;52.008;4.752;2024-01-06T09:36:07;101253.13;;;7.29;66.93
46534;BME280;32260;52.008;4.752;2024-01-06T09:38:37;101259.28;;;7.29;66.57
46534;BME280;32260;52.008;4.752;2024-01-06T09:41:03;101259.25;;;7.25;66.24
46534;BME280;32260;52.008;4.752;2024-01-06T09:43:29;101264.56;;;7.34;66.23
46534;BME280;32260;52.008;4.752;2024-01-06T09:46:09;101268.97;;;7.35;66.44
46534;BME280;32260;52.008;4.752;2024-01-06T09:48:41;101276.84;;;7.40;66.12
46534;BME280;32260;52.008;4.752;2024-01-06T09:51:10;101281.25;;;7.33;66.25
46534;BME280;32260;52.008;4.752;2024-01-06T09:53:45;101290.03;;;7.35;65.82
46534;BME280;32260;52.008;4.752;2024-01-06T09:56:15;101287.41;;;7.38;66.39
46534;BME280;32260;52.008;4.752;2024-01-06T09:58:43;101291.78;;;7.36;66.14
46534;BME280;32260;52.008;4.752;2024-01-06T10:01:11;101296.19;;;7.29;65.37
46534;BME280;32260;52.008;4.752;2024-01-06T10:03:38;101296.19;;;7.36;65.79
46534;BME280;32260;52.008;4.752;2024-01-06T10:06:04;101296.16;;;7.39;65.61
46534;BME280;32260;52.008;4.752;2024-01-06T10:08:31;101294.44;;;7.39;65.49
46534;BME280;32260;52.008;4.752;2024-01-06T10:10:59;101304.09;;;7.45;65.58
46534;BME280;32260;52.008;4.752;2024-01-06T10:13:26;101297.94;;;7.46;64.77
46534;BME280;32260;52.008;4.752;2024-01-06T10:15:55;101301.47;;;7.40;64.93
46534;BME280;32260;52.008;4.752;2024-01-06T10:18:21;101312.88;;;7.55;65.13
46534;BME280;32260;52.008;4.752;2024-01-06T10:20:47;101318.16;;;7.55;64.94
46534;BME280;32260;52.008;4.752;2024-01-06T10:23:14;101309.38;;;7.53;64.76
46534;BME280;32260;52.008;4.752;2024-01-06T10:25:40;101312.88;;;7.55;63.91
46534;BME280;32260;52.008;4.752;2024-01-06T10:28:11;101321.69;;;7.63;64.47
46534;BME280;32260;52.008;4.752;2024-01-06T10:30:39;101326.97;;;7.68;64.06
46534;BME280;32260;52.008;4.752;2024-01-06T10:33:12;101325.19;;;7.73;64.82
46534;BME280;32260;52.008;4.752;2024-01-06T10:35:39;101328.72;;;7.64;64.12
46534;BME280;32260;52.008;4.752;2024-01-06T10:38:07;101329.59;;;7.68;65.09
46534;BME280;32260;52.008;4.752;2024-01-06T10:40:33;101340.13;;;7.57;63.70
46534;BME280;32260;52.008;4.752;2024-01-06T10:43:00;101341.03;;;7.59;64.15
46534;BME280;32260;52.008;4.752;2024-01-06T10:45:29;101337.50;;;7.51;64.09
46534;BME280;32260;52.008;4.752;2024-01-06T10:47:56;101340.13;;;7.48;63.92
46534;BME280;32260;52.008;4.752;2024-01-06T10:50:24;101341.00;;;7.50;63.83
46534;BME280;32260;52.008;4.752;2024-01-06T10:52:51;101348.94;;;7.53;64.28
46534;BME280;32260;52.008;4.752;2024-01-06T10:55:19;101351.56;;;7.56;64.08
46534;BME280;32260;52.008;4.752;2024-01-06T10:57:47;101353.31;;;7.51;64.04
46534;BME280;32260;52.008;4.752;2024-01-06T11:00:15;101358.59;;;7.44;64.18
46534;BME280;32260;52.008;4.752;2024-01-06T11:02:41;101349.78;;;7.39;64.04
46534;BME280;32260;52.008;4.752;2024-01-06T11:05:09;101350.66;;;7.40;64.47
46534;BME280;32260;52.008;4.752;2024-01-06T11:07:37;101347.16;;;7.45;64.01
46534;BME280;32260;52.008;4.752;2024-01-06T11:12:43;101361.22;;;7.44;64.39
46534;BME280;32260;52.008;4.752;2024-01-06T11:15:09;101360.34;;;7.45;64.36
46534;BME280;32260;52.008;4.752;2024-01-06T11:17:52;101359.47;;;7.48;64.36
46534;BME280;32260;52.008;4.752;2024-01-06T11:20:20;101361.22;;;7.43;64.17
46534;BME280;32260;52.008;4.752;2024-01-06T11:22:48;101356.81;;;7.42;64.57
46534;BME280;32260;52.008;4.752;2024-01-06T11:25:16;101363.84;;;7.35;64.29
46534;BME280;32260;52.008;4.752;2024-01-06T11:27:44;101364.72;;;7.45;64.62
46534;BME280;32260;52.008;4.752;2024-01-06T11:30:27;101357.72;;;7.52;64.71
46534;BME280;32260;52.008;4.752;2024-01-06T11:32:56;101359.47;;;7.43;64.21
46534;BME280;32260;52.008;4.752;2024-01-06T11:35:26;101359.47;;;7.48;64.70
46534;BME280;32260;52.008;4.752;2024-01-06T11:37:55;101355.94;;;7.52;64.43
46534;BME280;32260;52.008;4.752;2024-01-06T11:43:08;101361.22;;;7.40;64.17
46534;BME280;32260;52.008;4.752;2024-01-06T11:45:36;101364.72;;;7.36;64.39
46534;BME280;32260;52.008;4.752;2024-01-06T11:48:05;101375.28;;;7.45;64.32
46534;BME280;32260;52.008;4.752;2024-01-06T11:50:33;101376.16;;;7.42;64.27
46534;BME280;32260;52.008;4.752;2024-01-06T11:52:59;101368.25;;;7.47;64.56
46534;BME280;32260;52.008;4.752;2024-01-06T11:55:26;101370.00;;;7.45;63.81
46534;BME280;32260;52.008;4.752;2024-01-06T11:57:55;101374.41;;;7.41;64.48
46534;BME280;32260;52.008;4.752;2024-01-06T12:00:22;101369.13;;;7.37;63.96
46534;BME280;32260;52.008;4.752;2024-01-06T12:02:48;101372.63;;;7.37;64.26
46534;BME280;32260;52.008;4.752;2024-01-06T12:05:16;101371.75;;;7.40;64.12
46534;BME280;32260;52.008;4.752;2024-01-06T12:07:52;101376.16;;;7.38;64.29
46534;BME280;32260;52.008;4.752;2024-01-06T12:10:21;101372.66;;;7.40;63.71
46534;BME280;32260;52.008;4.752;2024-01-06T12:15:39;101375.28;;;7.48;64.45
46534;BME280;32260;52.008;4.752;2024-01-06T12:18:06;101373.53;;;7.49;63.93
46534;BME280;32260;52.008;4.752;2024-01-06T12:20:32;101376.16;;;7.55;64.40
46534;BME280;32260;52.008;4.752;2024-01-06T12:22:59;101377.91;;;7.50;64.44
46534;BME280;32260;52.008;4.752;2024-01-06T12:25:26;101375.31;;;7.53;64.31
46534;BME280;32260;52.008;4.752;2024-01-06T12:27:54;101376.19;;;7.50;64.35
46534;BME280;32260;52.008;4.752;2024-01-06T12:30:22;101377.91;;;7.42;64.43
46534;BME280;32260;52.008;4.752;2024-01-06T12:32:50;101377.03;;;7.40;64.21
46534;BME280;32260;52.008;4.752;2024-01-06T12:35:18;101370.88;;;7.42;64.73
46534;BME280;32260;52.008;4.752;2024-01-06T12:37:45;101377.91;;;7.43;64.76
46534;BME280;32260;52.008;4.752;2024-01-06T12:40:13;101379.66;;;7.48;64.08
46534;BME280;32260;52.008;4.752;2024-01-06T12:42:40;101380.56;;;7.50;64.28
46534;BME280;32260;52.008;4.752;2024-01-06T12:45:08;101388.47;;;7.50;64.54
46534;BME280;32260;52.008;4.752;2024-01-06T12:47:35;101388.47;;;7.56;64.49
46534;BME280;32260;52.008;4.752;2024-01-06T12:50:02;101385.88;;;7.59;64.69
46534;BME280;32260;52.008;4.752;2024-01-06T12:52:30;101390.25;;;7.69;64.74
46534;BME280;32260;52.008;4.752;2024-01-06T12:54:56;101385.88;;;7.67;64.50
46534;BME280;32260;52.008;4.752;2024-01-06T12:57:22;101390.25;;;7.72;64.13
46534;BME280;32260;52.008;4.752;2024-01-06T12:59:49;101389.38;;;7.67;64.44
46534;BME280;32260;52.008;4.752;2024-01-06T13:02:15;101390.25;;;7.66;64.34
46534;BME280;32260;52.008;4.752;2024-01-06T13:04:41;101389.38;;;7.66;63.93
46534;BME280;32260;52.008;4.752;2024-01-06T13:07:07;101392.00;;;7.66;64.02